Time;durP1;ratioP1;P1;durP2;ratioP2;P2;SDS_P1;SDS_P2;PMS_P1;PMS_P2;Temp;Humidity;BMP_temperature;BMP_pressure;BME280_temperature;BME280_humidity;BME280_pressure;Samples;Min_cycle;Max_cycle;Signal;HPM_P1;HPM_P2
2021/12/25 00:00:43;;;;;;;25.40;13.00;;;;;;;;;;5052760;28;20131;-60
2021/12/25 00:03:08;;;;;;;24.33;12.70;;;;;;;;;;5073894;28;20067;-61
2021/12/25 00:05:34;;;;;;;19.88;11.75;;;;;;;;;;5073888;28;20123;-60
2021/12/25 00:07:59;;;;;;;21.20;11.80;;;;;;;;;;5073707;28;20492;-60
2021/12/25 00:10:25;;;;;;;19.48;11.75;;;;;;;;;;5073783;28;20445;-60
2021/12/25 00:12:53;;;;;;;21.20;12.02;;;;;;;;;;5072704;28;20036;-61
2021/12/25 00:15:18;;;;;;;18.77;12.00;;;;;;;;;;5038965;28;20035;-60
2021/12/25 00:17:44;;;;;;;27.25;12.50;;;;;;;;;;5073861;28;20032;-61
2021/12/25 00:20:09;;;;;;;24.25;11.50;;;;;;;;;;5055824;28;20543;-61
2021/12/25 00:22:35;;;;;;;21.92;11.85;;;;;;;;;;5073586;28;20120;-61
2021/12/25 00:25:00;;;;;;;22.80;12.27;;;;;;;;;;5073705;28;20032;-60
2021/12/25 00:32:52;;;;;;;15.02;11.10;;;;;;;;;;5055633;28;20484;-61
2021/12/25 00:35:18;;;;;;;26.27;11.15;;;;;;;;;;5055353;28;20120;-61
2021/12/25 00:37:43;;;;;;;23.75;11.20;;;;;;;;;;5073425;28;20115;-62
2021/12/25 00:40:09;;;;;;;25.35;12.20;;;;;;;;;;5073203;28;20039;-61
2021/12/25 00:42:34;;;;;;;23.25;11.38;;;;;;;;;;5055671;28;20505;-60
2021/12/25 00:45:00;;;;;;;18.58;11.00;;;;;;;;;;5073256;28;20033;-60
2021/12/25 00:47:25;;;;;;;24.48;11.10;;;;;;;;;;5055089;28;20124;-62
2021/12/25 00:49:51;;;;;;;23.10;10.95;;;;;;;;;;5054187;28;20021;-60
2021/12/25 00:52:16;;;;;;;18.20;11.05;;;;;;;;;;5073379;28;20064;-61
2021/12/25 00:54:41;;;;;;;19.58;10.57;;;;;;;;;;5073425;28;20036;-60
2021/12/25 00:57:07;;;;;;;28.73;10.93;;;;;;;;;;5055090;28;20432;-61
2021/12/25 00:59:33;;;;;;;20.48;11.77;;;;;;;;;;5055348;28;20040;-60
2021/12/25 01:01:59;;;;;;;24.92;11.43;;;;;;;;;;5073067;28;20028;-60
2021/12/25 01:04:25;;;;;;;19.25;10.82;;;;;;;;;;5071551;28;20021;-60
2021/12/25 01:06:51;;;;;;;20.42;11.20;;;;;;;;;;5054958;28;20036;-61
2021/12/25 01:09:16;;;;;;;20.70;10.65;;;;;;;;;;5072874;28;20032;-61
2021/12/25 01:11:45;;;;;;;19.95;10.98;;;;;;;;;;5055423;28;20119;-61
2021/12/25 01:14:22;;;;;;;26.03;10.93;;;;;;;;;;5038420;28;20075;-60
2021/12/25 01:17:46;;;;;;;22.92;10.45;;;;;;;;;;5054713;28;20037;-62
2021/12/25 01:20:24;;;;;;;16.50;9.40;;;;;;;;;;5051903;28;20040;-61
2021/12/25 01:31:20;;;;;;;19.15;10.43;;;;;;;;;;5021841;28;20044;-60
2021/12/25 01:33:56;;;;;;;22.35;10.30;;;;;;;;;;5069261;28;20052;-62
2021/12/25 01:48:15;;;;;;;23.73;10.30;;;;;;;;;;5070969;28;20037;-61
2021/12/25 01:50:41;;;;;;;18.35;9.93;;;;;;;;;;5054660;28;20124;-60
2021/12/25 01:53:07;;;;;;;20.92;10.10;;;;;;;;;;5072296;28;20139;-60
2021/12/25 01:55:32;;;;;;;22.80;9.68;;;;;;;;;;5072179;28;20033;-60
2021/12/25 01:57:59;;;;;;;19.98;10.20;;;;;;;;;;5054489;28;20068;-60
2021/12/25 02:00:26;;;;;;;16.65;9.40;;;;;;;;;;5041319;28;20020;-61
2021/12/25 02:02:53;;;;;;;18.00;9.75;;;;;;;;;;5060977;28;20056;-61
2021/12/25 02:05:19;;;;;;;25.25;9.73;;;;;;;;;;5044622;28;20020;-61
2021/12/25 02:07:44;;;;;;;20.73;9.77;;;;;;;;;;5078901;28;20028;-60
2021/12/25 02:10:11;;;;;;;19.33;9.55;;;;;;;;;;5061069;28;20040;-60
2021/12/25 02:12:37;;;;;;;17.13;9.23;;;;;;;;;;5078848;28;20364;-62
2021/12/25 02:15:08;;;;;;;24.15;9.88;;;;;;;;;;5061041;28;20040;-61
2021/12/25 02:18:06;;;;;;;21.27;10.43;;;;;;;;;;5060674;28;20045;-60
2021/12/25 02:20:53;;;;;;;23.98;10.18;;;;;;;;;;5078874;28;20400;-60
2021/12/25 02:23:21;;;;;;;17.48;9.25;;;;;;;;;;5060727;28;20042;-61
2021/12/25 02:25:48;;;;;;;19.02;10.10;;;;;;;;;;5043819;28;20110;-62
2021/12/25 02:28:14;;;;;;;21.27;9.88;;;;;;;;;;5060813;28;20056;-60
2021/12/25 02:30:40;;;;;;;20.80;10.50;;;;;;;;;;5060844;28;20028;-61
2021/12/25 02:33:06;;;;;;;18.73;10.18;;;;;;;;;;5060590;28;20548;-60
2021/12/25 02:35:32;;;;;;;23.23;10.43;;;;;;;;;;5060536;28;20037;-60
2021/12/25 02:37:57;;;;;;;19.80;10.65;;;;;;;;;;5060429;28;20025;-60
2021/12/25 02:40:23;;;;;;;19.10;9.95;;;;;;;;;;5060461;28;20040;-61
2021/12/25 02:42:49;;;;;;;24.13;10.27;;;;;;;;;;5043911;28;20442;-60
2021/12/25 02:45:19;;;;;;;21.90;10.80;;;;;;;;;;5060416;28;20029;-60
2021/12/25 02:47:46;;;;;;;19.38;9.65;;;;;;;;;;5060851;28;20131;-60
2021/12/25 02:50:13;;;;;;;20.80;10.13;;;;;;;;;;5043847;28;20472;-60
2021/12/25 02:52:39;;;;;;;22.13;10.75;;;;;;;;;;5060602;28;20045;-60
2021/12/25 02:55:05;;;;;;;24.08;10.73;;;;;;;;;;5078049;28;20032;-60
2021/12/25 02:57:31;;;;;;;29.15;11.40;;;;;;;;;;5060332;28;20113;-60
2021/12/25 02:59:57;;;;;;;17.75;10.77;;;;;;;;;;5043973;28;20032;-60
2021/12/25 03:02:23;;;;;;;23.45;11.35;;;;;;;;;;5060209;28;20027;-60
2021/12/25 03:04:49;;;;;;;21.38;10.23;;;;;;;;;;5078317;28;20067;-60
2021/12/25 03:07:15;;;;;;;22.58;11.48;;;;;;;;;;5043681;28;20392;-60
2021/12/25 03:09:42;;;;;;;23.88;11.30;;;;;;;;;;5059999;28;20110;-61
2021/12/25 03:12:09;;;;;;;21.73;10.73;;;;;;;;;;5056921;28;20032;-60
2021/12/25 03:14:39;;;;;;;21.75;10.48;;;;;;;;;;5056880;28;20051;-60
2021/12/25 03:17:05;;;;;;;22.10;10.07;;;;;;;;;;5056796;28;20036;-60
2021/12/25 03:19:34;;;;;;;27.88;11.55;;;;;;;;;;5057030;28;20028;-60
2021/12/25 03:22:01;;;;;;;24.08;11.10;;;;;;;;;;5056601;28;20028;-60
2021/12/25 03:24:26;;;;;;;18.95;10.05;;;;;;;;;;5056280;28;20098;-60
2021/12/25 03:26:56;;;;;;;19.70;11.63;;;;;;;;;;5057055;28;20041;-60
2021/12/25 03:29:25;;;;;;;26.00;9.98;;;;;;;;;;5040416;28;20086;-60
2021/12/25 03:31:51;;;;;;;22.20;10.15;;;;;;;;;;5056711;28;20037;-60
2021/12/25 03:34:17;;;;;;;18.83;9.80;;;;;;;;;;5056800;28;20051;-60
2021/12/25 03:36:43;;;;;;;23.40;9.10;;;;;;;;;;5074402;28;20028;-60
2021/12/25 03:39:08;;;;;;;22.42;8.43;;;;;;;;;;5056206;28;20074;-60
2021/12/25 03:41:34;;;;;;;23.83;9.15;;;;;;;;;;5056430;28;20098;-60
2021/12/25 03:44:00;;;;;;;20.58;8.73;;;;;;;;;;5039807;28;20020;-60
2021/12/25 03:46:28;;;;;;;20.85;9.23;;;;;;;;;;5039809;28;20131;-60
2021/12/25 03:59:32;;;;;;;24.83;9.50;;;;;;;;;;5074188;28;20044;-60
2021/12/25 04:02:03;;;;;;;25.23;10.38;;;;;;;;;;5054149;28;20021;-66
2021/12/25 04:04:36;;;;;;;21.90;9.52;;;;;;;;;;5051450;28;20115;-60
2021/12/25 04:07:08;;;;;;;20.02;9.52;;;;;;;;;;5035367;28;20438;-60
2021/12/25 04:09:35;;;;;;;17.20;9.13;;;;;;;;;;5035456;28;20040;-60
2021/12/25 04:12:01;;;;;;;19.50;9.48;;;;;;;;;;5035316;28;20063;-60
2021/12/25 04:14:28;;;;;;;29.23;9.95;;;;;;;;;;5051913;28;20454;-61
2021/12/25 04:16:54;;;;;;;20.20;9.52;;;;;;;;;;5069689;28;20024;-60
2021/12/25 04:19:20;;;;;;;27.67;9.88;;;;;;;;;;5069847;28;20411;-60
2021/12/25 04:22:00;;;;;;;22.98;10.35;;;;;;;;;;5035703;28;20043;-61
2021/12/25 04:24:28;;;;;;;26.15;9.50;;;;;;;;;;5051717;28;20040;-62
2021/12/25 04:26:53;;;;;;;26.30;9.40;;;;;;;;;;5051718;28;20067;-61
2021/12/25 05:02:41;;;;;;;20.02;10.00;;;;;;;;;;5050915;28;20033;-60
2021/12/25 05:05:34;;;;;;;24.33;9.90;;;;;;;;;;5068535;28;20428;-63
2021/12/25 05:08:07;;;;;;;20.75;9.13;;;;;;;;;;5051242;28;20032;-60
2021/12/25 05:10:33;;;;;;;20.80;9.35;;;;;;;;;;5051056;28;20040;-61
2021/12/25 05:12:59;;;;;;;22.45;9.00;;;;;;;;;;5050757;28;20086;-61
2021/12/25 05:15:25;;;;;;;22.63;9.70;;;;;;;;;;5068817;28;20036;-60
2021/12/25 05:17:50;;;;;;;22.85;9.90;;;;;;;;;;5050765;28;20033;-60
2021/12/25 05:20:17;;;;;;;23.88;9.35;;;;;;;;;;5051146;28;20040;-64
2021/12/25 05:22:43;;;;;;;25.15;10.13;;;;;;;;;;5034315;28;20036;-61
2021/12/25 05:25:10;;;;;;;26.77;9.65;;;;;;;;;;5068650;28;20078;-61
2021/12/25 05:27:46;;;;;;;25.27;9.35;;;;;;;;;;5050525;28;20036;-61
2021/12/25 05:30:12;;;;;;;24.65;9.45;;;;;;;;;;5034438;28;20047;-61
2021/12/25 05:33:00;;;;;;;21.67;8.77;;;;;;;;;;5068454;28;20039;-61
2021/12/25 05:35:44;;;;;;;20.77;8.35;;;;;;;;;;5049852;28;20056;-61
2021/12/25 05:38:33;;;;;;;34.45;9.60;;;;;;;;;;5068132;28;20090;-61
2021/12/25 05:41:13;;;;;;;23.17;9.05;;;;;;;;;;5036358;28;20044;-61
2021/12/25 05:43:39;;;;;;;24.48;8.02;;;;;;;;;;5050704;28;20039;-61
2021/12/25 05:46:05;;;;;;;24.95;9.02;;;;;;;;;;5067168;28;20438;-62
2021/12/25 05:48:35;;;;;;;20.75;7.15;;;;;;;;;;5050496;28;20040;-60
2021/12/25 05:51:33;;;;;;;22.23;7.60;;;;;;;;;;5011885;28;20056;-62
2021/12/25 05:54:20;;;;;;;24.67;7.78;;;;;;;;;;5050806;28;20135;-62
2021/12/25 05:57:04;;;;;;;20.60;7.63;;;;;;;;;;5068148;28;20056;-61
2021/12/25 05:59:47;;;;;;;22.02;7.68;;;;;;;;;;5068878;28;20043;-67
2021/12/25 06:02:36;;;;;;;20.52;8.15;;;;;;;;;;5060309;28;20067;-62
2021/12/25 06:05:04;;;;;;;22.85;6.95;;;;;;;;;;5050652;28;20037;-61
2021/12/25 06:07:30;;;;;;;25.58;7.75;;;;;;;;;;5033368;28;20044;-67
2021/12/25 06:09:56;;;;;;;23.90;8.60;;;;;;;;;;5034202;28;20036;-62
2021/12/25 06:12:22;;;;;;;23.02;7.70;;;;;;;;;;5050245;28;20461;-61
2021/12/25 06:14:48;;;;;;;31.23;7.72;;;;;;;;;;5050126;28;20473;-61
2021/12/25 06:17:52;;;;;;;21.02;7.00;;;;;;;;;;5006391;28;20094;-62
2021/12/25 06:20:33;;;;;;;21.75;7.40;;;;;;;;;;4990109;28;20107;-62
2021/12/25 06:23:17;;;;;;;21.75;7.18;;;;;;;;;;5049214;28;20090;-62
2021/12/25 06:25:58;;;;;;;22.13;7.13;;;;;;;;;;5050210;28;20040;-65
2021/12/25 06:28:33;;;;;;;20.92;6.80;;;;;;;;;;5049829;28;20028;-62
2021/12/25 06:31:17;;;;;;;28.33;6.55;;;;;;;;;;5068575;28;20857;-63
2021/12/25 06:33:57;;;;;;;22.65;6.05;;;;;;;;;;5050322;28;20029;-62
2021/12/25 06:36:57;;;;;;;22.48;7.07;;;;;;;;;;4994410;28;20042;-62
2021/12/25 06:39:39;;;;;;;17.67;5.75;;;;;;;;;;5043483;28;20135;-67
2021/12/25 06:42:09;;;;;;;15.70;5.90;;;;;;;;;;5033819;28;20063;-63
2021/12/25 06:44:35;;;;;;;24.50;6.15;;;;;;;;;;5049912;28;20055;-68
2021/12/25 06:47:01;;;;;;;19.95;6.70;;;;;;;;;;5068663;28;20502;-63
2021/12/25 06:49:27;;;;;;;15.20;6.25;;;;;;;;;;5036763;28;20492;-63
2021/12/25 06:52:11;;;;;;;15.88;5.90;;;;;;;;;;5057666;28;20055;-62
2021/12/25 06:54:59;;;;;;;21.70;5.95;;;;;;;;;;5050683;28;20051;-67
2021/12/25 06:57:45;;;;;;;23.10;5.78;;;;;;;;;;5032853;28;20127;-64
2021/12/25 07:00:13;;;;;;;19.10;5.82;;;;;;;;;;5033330;28;20043;-62
2021/12/25 07:02:39;;;;;;;24.17;6.13;;;;;;;;;;5032678;28;20490;-63
2021/12/25 07:05:23;;;;;;;16.85;6.43;;;;;;;;;;5051496;28;20509;-64
2021/12/25 07:08:09;;;;;;;23.17;6.70;;;;;;;;;;5035710;28;20503;-63
2021/12/25 07:10:43;;;;;;;19.80;5.95;;;;;;;;;;5049471;28;20824;-63
2021/12/25 07:13:34;;;;;;;22.38;7.05;;;;;;;;;;5027246;28;20056;-63
2021/12/25 07:16:20;;;;;;;21.05;6.30;;;;;;;;;;5050257;28;20052;-63
2021/12/25 07:19:12;;;;;;;17.80;6.40;;;;;;;;;;5042882;28;20139;-63
2021/12/25 07:21:58;;;;;;;13.57;5.70;;;;;;;;;;5049759;28;20045;-62
2021/12/25 07:24:41;;;;;;;20.73;6.22;;;;;;;;;;5050155;28;20037;-63
2021/12/25 07:27:27;;;;;;;21.67;6.05;;;;;;;;;;5036906;28;20053;-62
2021/12/25 07:29:56;;;;;;;25.13;6.53;;;;;;;;;;5049631;28;20033;-62
2021/12/25 07:32:22;;;;;;;20.90;5.90;;;;;;;;;;5050410;28;20538;-63
2021/12/25 07:34:48;;;;;;;18.67;6.78;;;;;;;;;;5050205;28;20469;-62
2021/12/25 07:37:14;;;;;;;22.55;5.60;;;;;;;;;;5048948;28;20072;-62
2021/12/25 07:39:43;;;;;;;17.30;7.22;;;;;;;;;;5033018;28;20033;-63
2021/12/25 07:42:08;;;;;;;17.38;5.57;;;;;;;;;;5050790;28;20028;-63
2021/12/25 07:45:01;;;;;;;17.75;6.85;;;;;;;;;;5049862;28;20476;-63
2021/12/25 07:47:27;;;;;;;17.25;6.38;;;;;;;;;;5048968;28;20095;-63
2021/12/25 07:49:52;;;;;;;14.60;4.63;;;;;;;;;;5050146;28;20045;-63
2021/12/25 07:52:18;;;;;;;12.15;4.70;;;;;;;;;;5032494;28;20036;-63
2021/12/25 07:54:43;;;;;;;12.43;4.40;;;;;;;;;;5050398;28;20040;-62
2021/12/25 07:57:09;;;;;;;14.07;4.80;;;;;;;;;;5049635;28;20128;-62
2021/12/25 07:59:34;;;;;;;17.75;4.75;;;;;;;;;;5050186;28;20457;-62
2021/12/25 08:01:59;;;;;;;16.98;5.20;;;;;;;;;;5050175;28;20041;-63
2021/12/25 08:04:25;;;;;;;16.08;4.85;;;;;;;;;;5050320;28;20427;-63
2021/12/25 08:06:50;;;;;;;11.77;4.53;;;;;;;;;;5031856;28;20132;-62
2021/12/25 08:09:28;;;;;;;17.38;4.78;;;;;;;;;;5050077;28;20052;-64
2021/12/25 08:11:54;;;;;;;12.55;4.50;;;;;;;;;;5032660;28;20037;-63
2021/12/25 08:14:20;;;;;;;12.68;4.45;;;;;;;;;;5050066;28;20514;-63
2021/12/25 08:16:45;;;;;;;9.00;3.72;;;;;;;;;;5015210;28;20041;-64
2021/12/25 08:19:11;;;;;;;16.92;4.82;;;;;;;;;;5048246;28;20451;-63
2021/12/25 08:21:55;;;;;;;17.38;4.35;;;;;;;;;;5050046;28;20048;-62
2021/12/25 08:24:56;;;;;;;17.25;4.70;;;;;;;;;;5007724;28;20470;-62
2021/12/25 08:27:42;;;;;;;13.95;4.80;;;;;;;;;;5042354;28;20057;-62
2021/12/25 08:30:15;;;;;;;9.43;3.83;;;;;;;;;;5032936;28;20037;-66
2021/12/25 08:32:59;;;;;;;12.77;4.22;;;;;;;;;;5049466;28;20527;-63
2021/12/25 08:36:00;;;;;;;15.27;5.40;;;;;;;;;;4987913;28;20038;-63
2021/12/25 08:38:25;;;;;;;11.38;4.03;;;;;;;;;;5036879;28;20040;-63
2021/12/25 08:40:54;;;;;;;13.73;4.45;;;;;;;;;;5049214;28;20112;-62
2021/12/25 08:43:24;;;;;;;11.35;3.67;;;;;;;;;;5049604;28;20033;-63
2021/12/25 08:46:00;;;;;;;11.68;4.25;;;;;;;;;;5031451;28;20028;-63
2021/12/25 08:48:26;;;;;;;11.90;3.83;;;;;;;;;;5031510;28;20488;-62
2021/12/25 08:50:53;;;;;;;14.98;3.85;;;;;;;;;;5031538;28;20037;-63
2021/12/25 08:53:20;;;;;;;12.00;3.90;;;;;;;;;;5049322;28;20087;-64
2021/12/25 08:55:46;;;;;;;10.57;3.17;;;;;;;;;;5049702;28;20037;-63
2021/12/25 08:58:11;;;;;;;9.27;3.42;;;;;;;;;;5049498;28;20115;-63
2021/12/25 09:00:37;;;;;;;14.98;4.47;;;;;;;;;;5049228;28;20120;-63
2021/12/25 09:03:02;;;;;;;12.35;3.17;;;;;;;;;;5049000;28;20045;-62
2021/12/25 09:05:28;;;;;;;12.30;3.78;;;;;;;;;;5031073;28;20028;-64
2021/12/25 09:07:53;;;;;;;11.90;3.38;;;;;;;;;;5049342;28;20049;-63
2021/12/25 09:10:19;;;;;;;16.10;5.18;;;;;;;;;;5048090;28;20063;-62
2021/12/25 09:12:45;;;;;;;14.27;3.60;;;;;;;;;;5048713;28;20387;-63
2021/12/25 09:15:12;;;;;;;14.05;3.63;;;;;;;;;;5030860;28;20056;-62
2021/12/25 09:17:37;;;;;;;11.85;3.60;;;;;;;;;;5048887;28;20037;-62
2021/12/25 09:20:04;;;;;;;8.65;3.47;;;;;;;;;;5030869;28;20058;-62
2021/12/25 09:22:29;;;;;;;11.52;3.58;;;;;;;;;;5030803;28;20036;-62
2021/12/25 09:24:55;;;;;;;16.98;3.70;;;;;;;;;;5048756;28;20025;-62
2021/12/25 09:27:20;;;;;;;15.38;4.15;;;;;;;;;;5030379;28;20037;-62
2021/12/25 09:29:47;;;;;;;10.32;3.50;;;;;;;;;;5049382;28;20091;-62
2021/12/25 09:32:13;;;;;;;10.55;4.07;;;;;;;;;;5048682;28;20055;-67
2021/12/25 09:34:39;;;;;;;14.00;3.80;;;;;;;;;;5030989;28;20033;-62
2021/12/25 09:37:05;;;;;;;10.50;3.45;;;;;;;;;;5048754;28;20504;-62
2021/12/25 09:39:31;;;;;;;17.02;5.90;;;;;;;;;;5030633;28;20148;-62
2021/12/25 09:41:56;;;;;;;15.18;3.30;;;;;;;;;;5047794;28;20508;-61
2021/12/25 09:44:22;;;;;;;11.13;3.13;;;;;;;;;;5047262;28;20033;-62
2021/12/25 09:46:47;;;;;;;11.15;3.88;;;;;;;;;;5048438;28;20029;-62
2021/12/25 09:49:13;;;;;;;14.18;3.95;;;;;;;;;;5046809;28;20037;-64
2021/12/25 09:51:39;;;;;;;16.13;4.60;;;;;;;;;;5046563;28;20384;-67
2021/12/25 09:54:08;;;;;;;12.75;4.03;;;;;;;;;;5046580;28;20040;-64
2021/12/25 09:56:36;;;;;;;14.80;4.70;;;;;;;;;;5028890;28;20083;-62
2021/12/25 09:59:02;;;;;;;11.73;4.65;;;;;;;;;;5046539;28;20051;-64
2021/12/25 10:01:45;;;;;;;20.05;4.47;;;;;;;;;;5028409;28;20055;-65
2021/12/25 10:04:12;;;;;;;18.02;5.00;;;;;;;;;;5028730;28;20040;-63
2021/12/25 10:06:39;;;;;;;17.33;5.43;;;;;;;;;;5028531;28;20041;-63
2021/12/25 10:09:11;;;;;;;22.00;4.90;;;;;;;;;;5045602;28;20033;-64
2021/12/25 10:11:36;;;;;;;13.82;4.65;;;;;;;;;;5029679;28;20029;-62
2021/12/25 10:14:02;;;;;;;22.83;5.35;;;;;;;;;;5047860;28;20358;-62
2021/12/25 10:16:28;;;;;;;21.45;6.10;;;;;;;;;;5048460;28;20400;-63
2021/12/25 10:18:55;;;;;;;15.75;4.47;;;;;;;;;;5030426;28;20535;-62
2021/12/25 10:21:23;;;;;;;13.98;5.40;;;;;;;;;;5032028;28;20037;-62
2021/12/25 10:24:10;;;;;;;22.35;5.93;;;;;;;;;;5033821;28;20435;-67
2021/12/25 10:26:37;;;;;;;17.73;5.38;;;;;;;;;;5033597;28;20472;-63
2021/12/25 10:29:21;;;;;;;21.23;5.88;;;;;;;;;;5033818;28;20090;-63
2021/12/25 10:31:47;;;;;;;18.85;5.65;;;;;;;;;;5051629;28;20033;-62
2021/12/25 10:34:15;;;;;;;17.88;4.90;;;;;;;;;;5033483;28;20064;-63
2021/12/25 10:36:41;;;;;;;25.50;5.97;;;;;;;;;;5051386;28;20037;-62
2021/12/25 10:39:06;;;;;;;16.67;5.07;;;;;;;;;;5051329;28;20412;-62
2021/12/25 10:41:35;;;;;;;17.25;4.80;;;;;;;;;;5051487;28;20041;-62
2021/12/25 10:44:09;;;;;;;17.20;5.22;;;;;;;;;;5033497;28;20043;-63
2021/12/25 10:46:47;;;;;;;25.90;5.32;;;;;;;;;;5051047;28;20365;-67
2021/12/25 10:49:13;;;;;;;22.33;5.80;;;;;;;;;;5051313;28;20253;-65
2021/12/25 10:51:39;;;;;;;24.58;6.15;;;;;;;;;;5033314;28;20095;-62
2021/12/25 10:54:04;;;;;;;20.15;5.40;;;;;;;;;;5051238;28;20068;-62
2021/12/25 10:56:34;;;;;;;17.02;5.38;;;;;;;;;;5051217;28;20049;-63
2021/12/25 10:59:12;;;;;;;25.80;5.95;;;;;;;;;;5050648;28;20137;-62
2021/12/25 11:01:39;;;;;;;24.77;7.85;;;;;;;;;;5016968;28;20040;-67
2021/12/25 11:04:04;;;;;;;25.13;8.15;;;;;;;;;;5051380;28;20041;-63
2021/12/25 11:06:30;;;;;;;30.48;7.70;;;;;;;;;;5032780;28;20532;-63
2021/12/25 11:16:00;;;;;;;22.70;6.40;;;;;;;;;;5050661;28;20044;-63
2021/12/25 11:18:26;;;;;;;22.67;5.82;;;;;;;;;;5033048;28;20039;-62
2021/12/25 11:20:51;;;;;;;29.05;6.20;;;;;;;;;;5050682;28;20025;-62
2021/12/25 11:23:16;;;;;;;26.85;6.45;;;;;;;;;;5050530;28;20370;-62
2021/12/25 11:25:43;;;;;;;18.35;5.88;;;;;;;;;;5050972;28;20438;-65
2021/12/25 11:28:10;;;;;;;24.00;5.45;;;;;;;;;;5033163;28;20029;-61
2021/12/25 11:30:40;;;;;;;21.50;5.78;;;;;;;;;;5049208;28;20495;-63
2021/12/25 11:33:06;;;;;;;19.90;6.40;;;;;;;;;;5031971;28;20029;-65
2021/12/25 11:35:33;;;;;;;19.83;5.82;;;;;;;;;;5050736;28;20387;-62
2021/12/25 11:37:59;;;;;;;16.80;5.20;;;;;;;;;;5033138;28;20084;-68
2021/12/25 11:40:26;;;;;;;23.85;6.15;;;;;;;;;;5050691;28;20083;-62
2021/12/25 11:42:54;;;;;;;24.38;5.95;;;;;;;;;;5050327;28;20029;-68
2021/12/25 11:45:28;;;;;;;28.55;6.70;;;;;;;;;;5032878;28;20033;-62
2021/12/25 11:47:55;;;;;;;21.52;5.82;;;;;;;;;;5032629;28;20033;-62
2021/12/25 11:50:23;;;;;;;31.20;8.35;;;;;;;;;;5050307;28;20024;-62
2021/12/25 11:53:09;;;;;;;22.65;6.43;;;;;;;;;;5032154;28;20029;-63
2021/12/25 11:58:21;;;;;;;29.13;7.97;;;;;;;;;;5049511;28;20496;-62
2021/12/25 12:00:48;;;;;;;28.42;8.88;;;;;;;;;;5049911;28;20041;-62
2021/12/25 12:03:33;;;;;;;28.30;8.75;;;;;;;;;;5032245;28;20021;-63
2021/12/25 12:05:58;;;;;;;26.63;8.73;;;;;;;;;;5050172;28;20129;-62
2021/12/25 12:08:23;;;;;;;27.77;10.50;;;;;;;;;;5049946;28;20108;-62
2021/12/25 12:11:19;;;;;;;29.95;10.25;;;;;;;;;;5050053;28;20059;-64
2021/12/25 12:14:18;;;;;;;32.28;10.93;;;;;;;;;;5049071;28;20099;-63
2021/12/25 12:17:04;;;;;;;47.03;11.57;;;;;;;;;;5050181;28;20051;-66
2021/12/25 12:19:48;;;;;;;32.67;12.82;;;;;;;;;;5031914;28;20662;-64
2021/12/25 12:22:32;;;;;;;28.05;10.77;;;;;;;;;;5031559;28;20412;-65
2021/12/25 12:25:16;;;;;;;29.30;10.23;;;;;;;;;;5031785;28;20037;-64
2021/12/25 12:27:47;;;;;;;30.80;12.50;;;;;;;;;;5032267;28;20040;-69
2021/12/25 12:30:33;;;;;;;39.47;12.23;;;;;;;;;;5031992;28;20091;-64
2021/12/25 12:33:11;;;;;;;36.45;11.43;;;;;;;;;;5031557;28;20028;-63
2021/12/25 12:35:40;;;;;;;35.88;12.70;;;;;;;;;;5049524;28;20404;-62
2021/12/25 12:38:28;;;;;;;33.67;13.43;;;;;;;;;;5031466;28;20106;-65
2021/12/25 12:41:13;;;;;;;36.78;13.32;;;;;;;;;;5031792;28;20044;-64
2021/12/25 12:43:50;;;;;;;35.65;14.45;;;;;;;;;;5049470;28;20036;-63
2021/12/25 12:46:16;;;;;;;33.55;13.20;;;;;;;;;;5049465;28;20785;-64
2021/12/25 12:49:00;;;;;;;32.85;14.52;;;;;;;;;;5049193;28;20048;-67
2021/12/25 12:51:25;;;;;;;40.53;13.70;;;;;;;;;;5049577;28;20041;-62
2021/12/25 12:53:51;;;;;;;42.72;14.10;;;;;;;;;;5049019;28;20020;-62
2021/12/25 12:56:21;;;;;;;39.28;13.45;;;;;;;;;;5031657;28;20040;-63
2021/12/25 12:58:54;;;;;;;38.63;14.43;;;;;;;;;;5031360;28;20119;-63
2021/12/25 13:01:20;;;;;;;33.25;13.43;;;;;;;;;;5031412;28;20578;-63
2021/12/25 13:03:46;;;;;;;42.63;15.00;;;;;;;;;;5031800;28;20056;-63
2021/12/25 13:06:14;;;;;;;36.28;13.10;;;;;;;;;;5049607;28;20072;-65
2021/12/25 13:08:42;;;;;;;35.20;13.40;;;;;;;;;;5049202;28;20032;-63
2021/12/25 13:11:13;;;;;;;42.15;14.60;;;;;;;;;;5031221;28;20035;-64
2021/12/25 13:13:46;;;;;;;34.22;13.63;;;;;;;;;;5031519;28;20067;-64
2021/12/25 13:16:14;;;;;;;39.38;13.73;;;;;;;;;;5031694;28;20848;-63
2021/12/25 13:18:41;;;;;;;48.47;14.93;;;;;;;;;;5031689;28;20040;-63
2021/12/25 13:21:09;;;;;;;41.70;14.68;;;;;;;;;;5031606;28;20036;-62
2021/12/25 13:23:35;;;;;;;43.97;14.73;;;;;;;;;;5031260;28;20146;-63
2021/12/25 13:26:05;;;;;;;45.28;14.35;;;;;;;;;;5031101;28;20453;-63
2021/12/25 13:28:32;;;;;;;40.40;14.05;;;;;;;;;;5030875;28;20036;-62
2021/12/25 13:31:00;;;;;;;36.95;14.50;;;;;;;;;;5030799;28;20079;-63
2021/12/25 13:33:27;;;;;;;47.97;14.40;;;;;;;;;;5031146;28;20037;-63
2021/12/25 13:36:12;;;;;;;42.67;14.70;;;;;;;;;;5030820;28;20522;-63
2021/12/25 13:38:57;;;;;;;37.20;13.82;;;;;;;;;;5030727;28;20061;-64
2021/12/25 13:41:35;;;;;;;43.70;13.10;;;;;;;;;;5030556;28;20037;-69
2021/12/25 13:44:16;;;;;;;44.58;14.18;;;;;;;;;;5048381;28;20029;-63
2021/12/25 13:46:52;;;;;;;39.63;13.98;;;;;;;;;;5048683;28;20033;-67
2021/12/25 13:49:29;;;;;;;44.17;13.45;;;;;;;;;;5048264;28;20037;-64
2021/12/25 13:51:55;;;;;;;43.17;15.15;;;;;;;;;;5030708;28;20485;-64
2021/12/25 13:54:21;;;;;;;38.90;14.73;;;;;;;;;;5048437;28;20029;-63
2021/12/25 13:56:51;;;;;;;39.63;14.75;;;;;;;;;;5029382;28;20122;-65
2021/12/25 13:59:16;;;;;;;43.05;15.68;;;;;;;;;;5014440;28;20060;-69
2021/12/25 14:01:42;;;;;;;44.10;15.80;;;;;;;;;;5048461;28;20041;-67
2021/12/25 14:04:08;;;;;;;50.88;17.02;;;;;;;;;;5030385;28;20028;-65
2021/12/25 14:06:33;;;;;;;52.92;15.57;;;;;;;;;;5030497;28;20045;-69
2021/12/25 14:08:59;;;;;;;53.60;16.10;;;;;;;;;;5047960;28;20109;-68
2021/12/25 14:11:28;;;;;;;51.28;16.58;;;;;;;;;;5048386;28;20028;-65
2021/12/25 14:13:54;;;;;;;56.13;17.90;;;;;;;;;;5030439;28;20095;-66
2021/12/25 14:16:20;;;;;;;48.08;15.85;;;;;;;;;;5030528;28;20041;-66
2021/12/25 14:18:45;;;;;;;58.95;18.10;;;;;;;;;;5048073;28;20087;-66
2021/12/25 14:21:16;;;;;;;58.67;18.65;;;;;;;;;;5030217;28;20032;-65
2021/12/25 14:23:42;;;;;;;55.17;17.80;;;;;;;;;;5048263;28;20033;-65
2021/12/25 14:26:07;;;;;;;54.50;16.55;;;;;;;;;;5047751;28;20424;-66
2021/12/25 14:28:34;;;;;;;60.00;17.55;;;;;;;;;;5048402;28;20111;-66
2021/12/25 14:31:04;;;;;;;56.95;16.65;;;;;;;;;;5048177;28;20041;-66
2021/12/25 14:33:31;;;;;;;52.33;16.83;;;;;;;;;;5048044;28;20540;-68
2021/12/25 14:35:56;;;;;;;46.08;16.75;;;;;;;;;;5030526;28;20041;-65
2021/12/25 14:38:22;;;;;;;56.33;17.63;;;;;;;;;;5048379;28;20532;-65
2021/12/25 14:40:49;;;;;;;58.63;18.35;;;;;;;;;;5047595;28;20041;-65
2021/12/25 14:43:16;;;;;;;56.42;19.02;;;;;;;;;;5029985;28;20064;-65
2021/12/25 14:45:44;;;;;;;58.70;20.60;;;;;;;;;;5029909;28;20374;-65
2021/12/25 14:48:09;;;;;;;63.60;20.35;;;;;;;;;;5029724;28;20072;-68
2021/12/25 14:50:36;;;;;;;61.75;18.38;;;;;;;;;;5047897;28;20888;-71
2021/12/25 14:53:07;;;;;;;54.72;17.13;;;;;;;;;;5029977;28;20840;-65
2021/12/25 14:55:34;;;;;;;52.80;18.08;;;;;;;;;;5030201;28;20102;-65
2021/12/25 14:58:16;;;;;;;55.97;18.65;;;;;;;;;;5029810;28;20037;-65
2021/12/25 15:00:43;;;;;;;69.30;19.83;;;;;;;;;;5029433;28;20037;-65
2021/12/25 15:03:09;;;;;;;67.00;19.05;;;;;;;;;;5029860;28;20033;-65
2021/12/25 15:05:39;;;;;;;59.55;19.05;;;;;;;;;;5029893;28;20029;-66
2021/12/25 15:08:25;;;;;;;56.15;18.08;;;;;;;;;;5030981;28;20037;-64
2021/12/25 15:10:52;;;;;;;66.00;19.20;;;;;;;;;;5037277;28;20052;-67
2021/12/25 15:13:19;;;;;;;60.53;19.92;;;;;;;;;;5032794;28;20029;-65
2021/12/25 15:15:53;;;;;;;62.45;20.05;;;;;;;;;;5032954;28;20043;-66
2021/12/25 15:18:19;;;;;;;69.95;20.15;;;;;;;;;;5032955;28;20057;-65
2021/12/25 15:20:45;;;;;;;66.18;18.63;;;;;;;;;;5050460;28;20032;-64
2021/12/25 15:23:17;;;;;;;66.35;18.75;;;;;;;;;;5050738;28;20025;-65
2021/12/25 15:25:43;;;;;;;55.80;18.70;;;;;;;;;;5032859;28;20164;-65
2021/12/25 15:28:09;;;;;;;55.78;18.17;;;;;;;;;;5033460;28;20115;-65
2021/12/25 15:30:35;;;;;;;58.05;18.90;;;;;;;;;;5032850;28;20036;-65
2021/12/25 15:33:07;;;;;;;70.05;18.98;;;;;;;;;;5049152;28;20037;-69
2021/12/25 15:35:40;;;;;;;55.53;17.92;;;;;;;;;;5032547;28;20485;-65
2021/12/25 15:38:06;;;;;;;62.03;20.25;;;;;;;;;;5032323;28;20036;-65
2021/12/25 15:40:52;;;;;;;68.88;19.67;;;;;;;;;;5050470;28;20179;-65
2021/12/25 15:43:17;;;;;;;60.15;18.30;;;;;;;;;;5032759;28;20037;-65
2021/12/25 15:45:43;;;;;;;49.88;17.60;;;;;;;;;;5050706;28;20041;-71
2021/12/25 15:48:08;;;;;;;57.13;18.58;;;;;;;;;;5050501;28;20044;-65
2021/12/25 15:50:35;;;;;;;53.28;17.45;;;;;;;;;;5050520;28;20037;-65
2021/12/25 15:53:01;;;;;;;54.38;18.13;;;;;;;;;;5032351;28;20025;-63
2021/12/25 15:55:29;;;;;;;59.67;18.13;;;;;;;;;;5032421;28;20029;-64
2021/12/25 16:00:20;;;;;;;67.57;17.95;;;;;;;;;;5128028;27;20445;-72
2021/12/25 16:02:45;;;;;;;55.90;17.60;;;;;;;;;;5125994;28;20115;-64
2021/12/25 16:05:11;;;;;;;65.82;18.38;;;;;;;;;;5107898;28;20083;-65